Tiempo atmosférico en la estación meteorológica de Castellote, Teruel (755 m.)



Fecha
DESCASC
Temp. máxima en grados centígrados (hora)
DESCASC
Temp. mínima en grados centígrados (hora)
DESCASC
Temp. media en grados centígrados
DESCASC
Racha de viento máxima en m/sg (hora)
DESCASC
Velocidad máxima media en intervalos de 10 minutos(hora)
DESCASC
Precipitaciones diarias en mm
DESCASC
Precipitaciones de 00:00 a 06:00 en mm
DESCASC
Precipitaciones de 06:00 a 12:00 en mm
DESCASC
Precipitaciones de 12:00 a 18:00 en mm
DESCASC
Precipitaciones de 18:00 a 24:00 en mm
DESCASC
10-07-2020 31.6 (15:40) 17.8 (06:50) 24.7 9.44 (15:50) 5.83 (15:50) 0.2 0 0 0.2 0
09-07-2020 32.7 (17:10) 21.3 (05:00) 27 14.17 (00:10) 9.44 (00:10) 0.2 0 0 0.2 0
08-07-2020 33.8 (17:00) 18.8 (06:50) 26.3 14.72 (19:20) 9.72 (19:40) 0 0 0 0 0
07-07-2020 29.8 (17:00) 14.1 (07:40) 21.9 10.28 (17:20) 4.72 (17:30) 0 0 0 0 0
06-07-2020 29.8 (17:50) 19.6 (00:00) 24.7 13.61 (13:50) 5.83 (18:50) 0 0 0 0 0
05-07-2020 31.8 (17:50) 17 (07:10) 24.4 13.61 (15:00) 6.67 (15:00) 0 0 0 0 0
04-07-2020 29.5 (18:20) 13.5 (07:40) 21.5 11.94 (01:40) 6.39 (14:30) 0 0 0 0 0
03-07-2020 26.4 (15:30) 15.3 (06:40) 20.8 11.11 (00:50) 5.83 (00:50) 0 0 0 0 0
02-07-2020 29.5 (17:20) 17.5 (00:00) 23.5 11.94 (21:00) 7.22 (21:10) 0 0 0 0 0
01-07-2020 33.2 (17:40) 19.4 (00:00) 26.3 10.28 (18:00) 5.83 (18:00) 0 0 0 0 0
30-06-2020 31.9 (15:30) 17.6 (00:00) 24.8 11.67 (16:20) 6.11 (16:20) 0 0 0 0 0
29-06-2020 31.2 (16:50) 18.7 (00:00) 25 8.33 (16:10) 4.17 (18:20) 0 0 0 0 0
28-06-2020 31.3 (15:30) 18.2 (00:00) 24.8 12.22 (17:20) 6.11 (17:20) 0 0 0 0 0
27-06-2020 29 (17:10) 17.9 (00:00) 23.4 12.22 (16:10) 6.39 (15:10) 0 0 0 0 0
26-06-2020 31.1 (15:30) 16.6 (00:00) 23.9 11.39 (14:20) 6.11 (14:30) 3.6 0 0 0 3.6
25-06-2020 32.2 (14:50) 16.3 (00:00) 24.3 -- (--) -- (--) 0 0 0 0 0
24-06-2020 31.5 (13:50) 18.8 (00:00) 25.1 22.78 (17:40) 17.5 (17:40) 0.6 0 0 0.4 0.2
23-06-2020 31.4 (16:30) 17 (00:00) 24.2 7.5 (17:00) 3.89 (17:30) 0 0 0 0 0
22-06-2020 28.9 (17:30) 18.1 (00:00) 23.5 11.39 (00:50) 7.5 (01:00) 0 0 0 0 0
21-06-2020 30.5 (16:50) 16.9 (00:00) 23.7 11.11 (23:00) 6.67 (23:00) 0 0 0 0 0
20-06-2020 27.6 (17:00) 14.7 (00:00) 21.2 9.44 (15:50) 5.83 (15:50) 0 0 0 0 0
19-06-2020 24.5 (17:30) 14.8 (00:00) 19.7 7.5 (13:00) 3.89 (12:30) 0.2 0 0 0.2 0
18-06-2020 21.8 (13:50) 12.1 (08:10) 16.9 9.17 (06:40) 6.11 (06:40) 1 1 0 0 0
17-06-2020 20.2 (18:40) 11.9 (00:00) 16.1 8.89 (03:40) 5.28 (15:00) 0 0 0 0 0
16-06-2020 23 (19:00) 13.3 (00:00) 18.2 13.61 (21:50) 6.67 (21:50) 2.4 0 0 2 0.4
15-06-2020 24.8 (16:50) 13.7 (00:00) 19.2 10 (17:20) 4.72 (23:00) 0 0 0 0 0
14-06-2020 24.4 (14:20) 11.1 (00:00) 17.8 9.72 (12:30) 5.28 (12:40) 0 0 0 0 0
13-06-2020 22.8 (18:10) 11.4 (00:00) 17.1 10.83 (16:10) 5.56 (16:20) 0 0 0 0 0
12-06-2020 24 (16:20) 12.4 (00:00) 18.2 12.78 (02:20) 5.83 (02:20) 0 0 0 0 0

Gráficas

Temp. máximas Temp. mínimas Temp. medias Precipitaciones Rachas de viento máximas Velocidades máximas media en intervalos de 10 minutos

Datos horarios

Fecha y hora oficial Temperatura (ºC) Velocidad del viento (km/h) Dirección del viento Racha (km/h) Dirección de racha Precipitación (mm) Presión (hPa) Tendencia (hPa) Humedad (%)
2020-07-11 23:00:00 23.1 6 Sudeste 12 Este 0 -- -- 65
2020-07-11 22:00:00 24 8 Este 13 Este 0 -- -- 61
2020-07-11 21:00:00 26 8 Sudeste 20 Sudeste 0 -- -- 54
2020-07-11 20:00:00 28 10 Este 23 Sur 0 -- -- 49
2020-07-11 19:00:00 29.4 12 Sudeste 25 Sudeste 0 -- -- 45
2020-07-11 18:00:00 29.6 17 Este 29 Este 0 -- -- 45
2020-07-11 17:00:00 30.2 16 Este 30 Este 0 -- -- 40
2020-07-11 16:00:00 29.8 13 Este 31 Este 0 -- -- 40
2020-07-11 15:00:00 29.2 8 Este 25 Este 0 -- -- 41
2020-07-11 14:00:00 27.6 5 Este 18 Nordeste 0 -- -- 44
2020-07-11 13:00:00 25.7 9 Este 20 Este 0 -- -- 48
2020-07-11 12:00:00 23.8 5 Este 19 Nordeste 0 -- -- 54
2020-07-11 11:00:00 22.2 6 Este 17 Este 0 -- -- 58
2020-07-11 10:00:00 20.7 8 Este 15 Este 0 -- -- 63
2020-07-11 09:00:00 18.9 3 Sudeste 9 Este 0 -- -- 70
2020-07-11 08:00:00 16.9 0 Calma 20 Oeste 0 -- -- 77
2020-07-11 07:00:00 16.2 7 Noroeste 13 Oeste 0 -- -- 79
2020-07-11 06:00:00 16.7 3 Noroeste 6 Noroeste 0 -- -- 78
2020-07-11 05:00:00 17.2 0 Calma 14 Oeste 0 -- -- 77
2020-07-11 04:00:00 18.2 10 Oeste 16 Oeste 0 -- -- 73
2020-07-11 03:00:00 19.1 9 Oeste 19 Noroeste 0 -- -- 71
2020-07-11 02:00:00 20 11 Noroeste 26 Oeste 0 -- -- 68
2020-07-11 01:00:00 21.2 14 Oeste 32 Oeste 0 -- -- 65
2020-07-11 00:00:00 22.6 15 Noroeste 24 Noroeste 0 -- -- 61
2020-07-10 23:00:00 24.5 3 Sur 27 Oeste 0 -- -- 49
2020-07-10 22:00:00 24.7 3 Sudoeste 16 Sur 0 -- -- 50
2020-07-10 21:00:00 25.4 7 Sur 12 Sur 0 -- -- 48
2020-07-10 20:00:00 26.3 6 Sudeste 17 Sur 0 -- -- 47
2020-07-10 19:00:00 27.6 12 Sur 22 Sur 0 -- -- 42
2020-07-10 18:00:00 28.4 3 Sudeste 18 Oeste 0 -- -- 39
2020-07-10 17:00:00 25.3 12 Oeste 30 Sudoeste 0.2 -- -- 52
2020-07-10 16:00:00 29.2 16 Este 34 Este 0 -- -- 40
2020-07-10 15:00:00 30.3 11 Este 31 Este 0 -- -- 36
2020-07-10 14:00:00 29.1 11 Este 19 Este 0 -- -- 37
2020-07-10 13:00:00 27.7 8 Este 23 Este 0 -- -- 40
2020-07-10 12:00:00 25.9 6 Este 17 Este 0 -- -- 48
2020-07-10 11:00:00 23.9 6 Sudeste 19 Este 0 -- -- 54
2020-07-10 10:00:00 22.6 8 Este 14 Nordeste 0 -- -- 57
2020-07-10 09:00:00 20.8 3 Este 7 Nordeste 0 -- -- 63
2020-07-10 08:00:00 18.4 5 Este 7 Este 0 -- -- 70
2020-07-10 07:00:00 17.8 2 Este 7 Este 0 -- -- 71
2020-07-10 06:00:00 18.3 3 Este 6 Este 0 -- -- 67
2020-07-10 05:00:00 18.9 2 Sur 8 Oeste 0 -- -- 64
2020-07-10 04:00:00 19.3 2 Este 6 Sur 0 -- -- 62
2020-07-10 03:00:00 20.2 0 Calma 8 Este 0 -- -- 58
2020-07-10 02:00:00 20.9 6 Este 8 Este 0 -- -- 56
2020-07-10 01:00:00 21.9 4 Este 8 Este 0 -- -- 54
2020-07-10 00:00:00 22.9 5 Sudeste 45 Oeste 0 -- -- 53
2020-07-09 23:00:00 24.1 6 Sudoeste 14 Oeste 0 -- -- 68
2020-07-09 22:00:00 25.2 5 Sudeste 17 Sudoeste 0 -- -- 64
2020-07-09 21:00:00 28.1 5 Sur 12 Oeste 0 -- -- 54
2020-07-09 20:00:00 29.5 7 Nordeste 26 Este 0 -- -- 38
2020-07-09 19:00:00 30.3 12 Nordeste 28 Nordeste 0 -- -- 36
2020-07-09 18:00:00 31.9 7 Este 24 Nordeste 0 -- -- 34
2020-07-09 17:00:00 32.5 4 Nordeste 12 Noroeste 0 -- -- 26
2020-07-09 16:00:00 31.1 4 Sur 15 Sur 0 -- -- 29
2020-07-09 15:00:00 29.1 4 Sur 10 Sur 0 -- -- 41
2020-07-09 14:00:00 27.1 8 Sudeste 17 Norte 0.2 -- -- 47
2020-07-09 13:00:00 24 3 Noroeste 18 Sudoeste 0 -- -- 54
2020-07-09 12:00:00 24.2 11 Noroeste 35 Oeste 0 -- -- 52
2020-07-09 11:00:00 23.6 14 Este 28 Sur 0 -- -- 48
2020-07-09 10:00:00 24.7 3 Este 21 Sudoeste 0 -- -- 44
2020-07-09 09:00:00 22.2 6 Nordeste 17 Noroeste 0 -- -- 50
2020-07-09 08:00:00 22 0 Calma 5 Sudeste 0 -- -- 51
2020-07-09 07:00:00 21.8 4 Oeste 14 Este 0 -- -- 51
2020-07-09 06:00:00 22.9 6 Nordeste 34 Oeste 0 -- -- 49
2020-07-09 05:00:00 21.3 7 Sudoeste 15 Sudoeste 0 -- -- 62
2020-07-09 04:00:00 24.9 4 Este 13 Norte 0 -- -- 36
2020-07-09 03:00:00 26 5 Este 28 Sur 0 -- -- 34
2020-07-09 02:00:00 27.5 21 Sudoeste 41 Sudoeste 0 -- -- 30
2020-07-09 01:00:00 27.2 12 Este 51 Sudoeste 0 -- -- 31
2020-07-09 00:00:00 28.2 32 Sudoeste 48 Sudoeste 0 -- -- 29
2020-07-08 23:00:00 26 23 Sudoeste 35 Sudoeste 0 -- -- 35
2020-07-08 22:00:00 24.8 9 Sudeste 27 Sudoeste 0 -- -- 42
2020-07-08 21:00:00 24.2 24 Sudoeste 48 Sur 0 -- -- 45
2020-07-08 20:00:00 24.9 27 Sudoeste 53 Sudoeste 0 -- -- 42
2020-07-08 19:00:00 26.3 10 Sur 29 Sudeste 0 -- -- 64
2020-07-08 18:00:00 30.8 10 Sudeste 24 Sudeste 0 -- -- 47
2020-07-08 17:00:00 33.8 6 Sudeste 20 Sudeste 0 -- -- 36
2020-07-08 16:00:00 32.7 9 Este 21 Sur 0 -- -- 37
2020-07-08 15:00:00 31.4 8 Este 15 Oeste 0 -- -- 34
2020-07-08 14:00:00 28.4 7 Oeste 30 Este 0 -- -- 40
2020-07-08 13:00:00 27.1 11 Este 22 Noroeste 0 -- -- 43
2020-07-08 12:00:00 26.1 8 Noroeste 22 Nordeste 0 -- -- 45
2020-07-08 11:00:00 26.2 9 Este 19 Nordeste 0 -- -- 45
2020-07-08 10:00:00 23.5 3 Noroeste 11 Este 0 -- -- 49
2020-07-08 09:00:00 21.1 6 Este 8 Nordeste 0 -- -- 47
2020-07-08 08:00:00 19.2 3 Este 5 Este 0 -- -- 50
2020-07-08 07:00:00 18.8 0 Calma 5 Sudeste 0 -- -- 51
2020-07-08 06:00:00 19.4 3 Sudeste 5 Sudeste 0 -- -- 47
2020-07-08 05:00:00 19.7 0 Calma 5 Este 0 -- -- 45
2020-07-08 04:00:00 20.7 4 Este 5 Este 0 -- -- 43
2020-07-08 03:00:00 21.9 0 Calma 6 Este 0 -- -- 45
2020-07-08 02:00:00 21.8 4 Oeste 8 Oeste 0 -- -- 38
2020-07-08 01:00:00 22.8 2 Este 5 Este 0 -- -- 35
2020-07-08 00:00:00 23.8 5 Este 7 Este 0 -- -- 32
2020-07-07 23:00:00 24.9 0 Calma 11 Nordeste 0 -- -- 29
2020-07-07 22:00:00 25.9 3 Nordeste 13 Nordeste 0 -- -- 26
2020-07-07 21:00:00 27.2 6 Nordeste 16 Este 0 -- -- 24
2020-07-07 20:00:00 28.6 10 Este 22 Este 0 -- -- 24
2020-07-07 19:00:00 29 16 Este 27 Este 0 -- -- 24
2020-07-07 18:00:00 29.6 14 Este 37 Este 0 -- -- 23
2020-07-07 17:00:00 29.8 13 Este 28 Este 0 -- -- 25
2020-07-07 16:00:00 29.2 17 Este 31 Este 0 -- -- 28
2020-07-07 15:00:00 27.6 16 Este 32 Este 0 -- -- 32
2020-07-07 14:00:00 26.3 13 Este 25 Este 0 -- -- 35
2020-07-07 13:00:00 24.7 5 Norte 20 Este 0 -- -- 37
2020-07-07 12:00:00 22.4 9 Este 19 Este 0 -- -- 40
2020-07-07 11:00:00 20.4 6 Este 16 Este 0 -- -- 44
2020-07-07 10:00:00 18.7 7 Nordeste 18 Este 0 -- -- 47
2020-07-07 09:00:00 18 4 Sudeste 6 Este 0 -- -- 50
2020-07-07 08:00:00 15 2 Oeste 4 Oeste 0 -- -- 56
2020-07-07 07:00:00 14.6 3 Norte 9 Norte 0 -- -- 56
2020-07-07 06:00:00 15.3 0 Calma 5 Norte 0 -- -- 54
2020-07-07 05:00:00 16 3 Nordeste 8 Norte 0 -- -- 52
2020-07-07 04:00:00 17.2 2 Oeste 8 Oeste 0 -- -- 45
2020-07-07 03:00:00 18.8 8 Noroeste 14 Noroeste 0 -- -- 39
2020-07-07 02:00:00 19.4 8 Noroeste 28 Noroeste 0 -- -- 37
2020-07-07 01:00:00 19.8 6 Oeste 28 Oeste 0 -- -- 38
2020-07-07 00:00:00 20.4 8 Sudoeste 31 Noroeste 0 -- -- 42
2020-07-06 23:00:00 21.5 9 Oeste 33 Oeste 0 -- -- 50
2020-07-06 22:00:00 22.9 14 Oeste 33 Oeste 0 -- -- 45
2020-07-06 21:00:00 24.7 19 Oeste 32 Oeste 0 -- -- 42
2020-07-06 20:00:00 28.1 11 Noroeste 41 Oeste 0 -- -- 39
2020-07-06 19:00:00 29.1 16 Noroeste 43 Noroeste 0 -- -- 38
2020-07-06 18:00:00 29.6 14 Noroeste 42 Oeste 0 -- -- 37
2020-07-06 17:00:00 29.1 17 Oeste 43 Oeste 0 -- -- 38
2020-07-06 16:00:00 29.3 19 Noroeste 45 Oeste 0 -- -- 39
2020-07-06 15:00:00 28.8 20 Noroeste 40 Oeste 0 -- -- 40
2020-07-06 14:00:00 26.7 16 Oeste 49 Oeste 0 -- -- 43
2020-07-06 13:00:00 26.5 12 Sudoeste 35 Oeste 0 -- -- 44
2020-07-06 12:00:00 24.8 13 Oeste 26 Noroeste 0 -- -- 47
2020-07-06 11:00:00 23.5 12 Noroeste 25 Noroeste 0 -- -- 49
2020-07-06 10:00:00 21.9 13 Noroeste 30 Oeste 0 -- -- 53
2020-07-06 09:00:00 21.5 5 Noroeste 21 Noroeste 0 -- -- 55
2020-07-06 08:00:00 20.6 8 Noroeste 17 Noroeste 0 -- -- 56
2020-07-06 07:00:00 20 4 Norte 11 Noroeste 0 -- -- 55
2020-07-06 06:00:00 20.7 3 Oeste 9 Oeste 0 -- -- 52
2020-07-06 05:00:00 21.5 3 Oeste 13 Este 0 -- -- 50
2020-07-06 04:00:00 21.7 5 Este 14 Sudeste 0 -- -- 49
2020-07-06 03:00:00 22.6 4 Sur 19 Oeste 0 -- -- 47
2020-07-06 02:00:00 23.1 4 Nordeste 21 Oeste 0 -- -- 47
2020-07-06 01:00:00 23.1 5 Sudeste 9 Este 0 -- -- 42
2020-07-06 00:00:00 25.1 2 Nordeste 8 Oeste 0 -- -- 37
2020-07-05 23:00:00 26.5 2 Este 3 Noroeste 0 -- -- 33
2020-07-05 22:00:00 27.5 0 Calma 11 Nordeste 0 -- -- 32
2020-07-05 21:00:00 28.7 6 Este 19 Este 0 -- -- 31
2020-07-05 20:00:00 30.3 10 Este 24 Sudeste 0 -- -- 28
2020-07-05 19:00:00 31.1 11 Sudeste 32 Este 0 -- -- 28
2020-07-05 18:00:00 31.5 9 Este 33 Este 0 -- -- 29
2020-07-05 17:00:00 31.4 11 Sudeste 29 Este 0 -- -- 30
2020-07-05 16:00:00 31.2 6 Norte 40 Este 0 -- -- 29
2020-07-05 15:00:00 29.8 24 Este 49 Nordeste 0 -- -- 33
2020-07-05 14:00:00 29.1 19 Este 36 Este 0 -- -- 34
2020-07-05 13:00:00 28.3 15 Este 25 Este 0 -- -- 36
2020-07-05 12:00:00 26.5 8 Este 19 Este 0 -- -- 37
2020-07-05 11:00:00 24.8 8 Este 15 Este 0 -- -- 40
2020-07-05 10:00:00 22.9 4 Este 9 Nordeste 0 -- -- 41
2020-07-05 09:00:00 20.4 2 Este 7 Nordeste 0 -- -- 47
2020-07-05 08:00:00 17.7 5 Nordeste 7 Este 0 -- -- 50
2020-07-05 07:00:00 17.1 2 Sudeste 6 Nordeste 0 -- -- 49
2020-07-05 06:00:00 17.9 3 Este 6 Sudeste 0 -- -- 46
2020-07-05 05:00:00 18.9 2 Este 12 Nordeste 0 -- -- 44
2020-07-05 04:00:00 19.4 3 Este 21 Sur 0 -- -- 43
2020-07-05 03:00:00 20.6 6 Norte 28 Oeste 0 -- -- 41
2020-07-05 02:00:00 21.4 12 Oeste 20 Oeste 0 -- -- 40
2020-07-05 01:00:00 22 12 Oeste 18 Oeste 0 -- -- 34
2020-07-05 00:00:00 22.8 13 Oeste 32 Norte 0 -- -- 30
2020-07-04 23:00:00 23.8 10 Oeste 22 Noroeste 0 -- -- 28
2020-07-04 22:00:00 24.4 3 Sudoeste 11 Este 0 -- -- 24
2020-07-04 21:00:00 26.2 5 Sudeste 18 Nordeste 0 -- -- 21
2020-07-04 20:00:00 28.1 8 Este 24 Sudeste 0 -- -- 20
2020-07-04 19:00:00 29.3 7 Sur 22 Nordeste 0 -- -- 20
2020-07-04 18:00:00 29.1 9 Sur 28 Norte 0 -- -- 22
2020-07-04 17:00:00 29.1 8 Este 33 Oeste 0 -- -- 21
2020-07-04 16:00:00 28.7 13 Sudoeste 41 Oeste 0 -- -- 23
2020-07-04 15:00:00 27 18 Este 34 Este 0 -- -- 31
2020-07-04 14:00:00 25.2 21 Este 36 Este 0 -- -- 36
2020-07-04 13:00:00 24.5 12 Este 28 Este 0 -- -- 40
2020-07-04 12:00:00 22.9 8 Este 21 Este 0 -- -- 46
2020-07-04 11:00:00 20.7 5 Norte 16 Este 0 -- -- 51
2020-07-04 10:00:00 18.9 5 Sudeste 13 Nordeste 0 -- -- 55
2020-07-04 09:00:00 16.6 4 Este 8 Este 0 -- -- 62
2020-07-04 08:00:00 14.3 0 Calma 13 Norte 0 -- -- 69
2020-07-04 07:00:00 13.8 6 Noroeste 16 Norte 0 -- -- 68
2020-07-04 06:00:00 13.7 2 Oeste 7 Este 0 -- -- 68
2020-07-04 05:00:00 14.2 0 Calma 5 Este 0 -- -- 67
2020-07-04 04:00:00 14.9 2 Sur 5 Este 0 -- -- 64
2020-07-04 03:00:00 15.7 4 Este 28 Oeste 0 -- -- 61
2020-07-04 02:00:00 16.4 21 Oeste 43 Oeste 0 -- -- 58
2020-07-04 01:00:00 17.5 18 Oeste 34 Oeste 0 -- -- 55
2020-07-04 00:00:00 18.9 5 Oeste 15 Norte 0 -- -- 51
2020-07-03 23:00:00 19.8 4 Noroeste 19 Oeste 0 -- -- 48
2020-07-03 22:00:00 20.8 2 Nordeste 16 Este 0 -- -- 44
2020-07-03 21:00:00 22.4 5 Nordeste 23 Este 0 -- -- 40
2020-07-03 20:00:00 23.9 12 Este 29 Este 0 -- -- 38
2020-07-03 19:00:00 25.2 8 Este 30 Este 0 -- -- 37
2020-07-03 18:00:00 25.5 10 Este 32 Este 0 -- -- 39
2020-07-03 17:00:00 25.6 12 Este 33 Este 0 -- -- 39
2020-07-03 16:00:00 25.2 14 Este 28 Sudeste 0 -- -- 40
2020-07-03 15:00:00 25 7 Norte 28 Nordeste 0 -- -- 41
2020-07-03 14:00:00 23.3 9 Noroeste 23 Sudoeste 0 -- -- 44
2020-07-03 13:00:00 22.1 10 Oeste 24 Noroeste 0 -- -- 46
2020-07-03 12:00:00 20.6 10 Noroeste 31 Oeste 0 -- -- 48
2020-07-03 11:00:00 18.9 10 Noroeste 30 Oeste 0 -- -- 50
2020-07-03 10:00:00 17.1 6 Oeste 30 Noroeste 0 -- -- 56
2020-07-03 09:00:00 15.9 15 Noroeste 39 Noroeste 0 -- -- 59
2020-07-03 08:00:00 15.7 11 Oeste 36 Oeste 0 -- -- 62
2020-07-03 07:00:00 15.4 9 Noroeste 25 Noroeste 0 -- -- 64
2020-07-03 06:00:00 15.5 9 Oeste 33 Noroeste 0 -- -- 64
2020-07-03 05:00:00 15.8 13 Oeste 31 Oeste 0 -- -- 65
2020-07-03 04:00:00 15.8 7 Sudeste 28 Sudoeste 0 -- -- 69
2020-07-03 03:00:00 15.6 12 Sudoeste 25 Sudoeste 0 -- -- 68
2020-07-03 02:00:00 16.1 7 Sudoeste 36 Oeste 0 -- -- 68
2020-07-03 01:00:00 16.9 18 Oeste 40 Oeste 0 -- -- 67
2020-07-03 00:00:00 17.9 12 Noroeste 39 Noroeste 0 -- -- 65
2020-07-02 23:00:00 19.8 17 Noroeste 39 Noroeste 0 -- -- 61
2020-07-02 22:00:00 22.4 8 Norte 43 Noroeste 0 -- -- 55
2020-07-02 21:00:00 25 23 Noroeste 43 Oeste 0 -- -- 47
2020-07-02 20:00:00 27.2 6 Sudeste 23 Este 0 -- -- 43
2020-07-02 19:00:00 27.2 9 Este 21 Sudeste 0 -- -- 44
2020-07-02 18:00:00 28.5 12 Nordeste 26 Oeste 0 -- -- 42
2020-07-02 17:00:00 29 8 Nordeste 26 Este 0 -- -- 41
2020-07-02 16:00:00 28.9 13 Sudoeste 29 Oeste 0 -- -- 42
2020-07-02 15:00:00 28.3 14 Este 30 Este 0 -- -- 44
2020-07-02 14:00:00 27.8 14 Este 27 Este 0 -- -- 47
2020-07-02 13:00:00 27 11 Este 23 Este 0 -- -- 49
2020-07-02 12:00:00 25.5 7 Sudeste 19 Este 0 -- -- 53
2020-07-02 11:00:00 23.9 5 Sudoeste 13 Sudeste 0 -- -- 58
2020-07-02 10:00:00 22.7 3 Sudeste 8 Sudeste 0 -- -- 61
2020-07-02 09:00:00 20.3 4 Sur 8 Sudoeste 0 -- -- 69
2020-07-02 08:00:00 18.6 2 Sur 4 Sur 0 -- -- 76
2020-07-02 07:00:00 17.6 0 Calma 7 Nordeste 0 -- -- 79
2020-07-02 06:00:00 18.2 3 Norte 11 Nordeste 0 -- -- 77
2020-07-02 05:00:00 18.9 5 Nordeste 14 Nordeste 0 -- -- 75
2020-07-02 04:00:00 20.1 3 Sudeste 10 Norte 0 -- -- 74
2020-07-02 03:00:00 21.2 3 Nordeste 8 Norte 0 -- -- 70
2020-07-02 02:00:00 22.5 3 Nordeste 11 Noroeste 0 -- -- 64
2020-07-02 01:00:00 23.6 8 Noroeste 11 Noroeste 0 -- -- 61
2020-07-02 00:00:00 25.1 5 Noroeste 15 Norte 0 -- -- 51
2020-07-01 23:00:00 26.2 10 Noroeste 31 Oeste 0 -- -- 49
2020-07-01 22:00:00 27.2 18 Noroeste 35 Oeste 0 -- -- 49
2020-07-01 21:00:00 28.9 3 Sudeste 16 Sudeste 0 -- -- 50
2020-07-01 20:00:00 30.7 9 Sudeste 26 Sudeste 0 -- -- 44
2020-07-01 19:00:00 32.4 12 Este 30 Este 0 -- -- 35
2020-07-01 18:00:00 32.4 21 Este 37 Este 0 -- -- 36
2020-07-01 17:00:00 31.8 12 Nordeste 28 Este 0 -- -- 37
2020-07-01 16:00:00 31.2 10 Este 30 Este 0 -- -- 41
2020-07-01 15:00:00 31.7 12 Este 30 Este 0 -- -- 40
2020-07-01 14:00:00 30.5 8 Nordeste 28 Nordeste 0 -- -- 46
2020-07-01 13:00:00 30.4 9 Este 30 Este 0 -- -- 44
2020-07-01 12:00:00 29.5 10 Este 23 Este 0 -- -- 38
2020-07-01 11:00:00 27.6 6 Norte 16 Nordeste 0 -- -- 44
2020-07-01 10:00:00 25.9 3 Nordeste 9 Este 0 -- -- 53
2020-07-01 09:00:00 23.1 6 Nordeste 10 Nordeste 0 -- -- 58
2020-07-01 08:00:00 20.3 2 Noroeste 8 Nordeste 0 -- -- 70
2020-07-01 07:00:00 19.4 6 Nordeste 9 Este 0 -- -- 76
2020-07-01 06:00:00 20.1 5 Sudeste 9 Este 0 -- -- 74
2020-07-01 05:00:00 20.3 2 Sudoeste 6 Este 0 -- -- 73
2020-07-01 04:00:00 21.2 3 Sur 10 Sudoeste 0 -- -- 66
2020-07-01 03:00:00 21.7 2 Oeste 7 Este 0 -- -- 67
2020-07-01 02:00:00 22 3 Sudeste 10 Sur 0 -- -- 64
2020-07-01 01:00:00 23.2 4 Sur 19 Noroeste 0 -- -- 63
2020-07-01 00:00:00 23.7 7 Norte 21 Norte 0 -- -- 60
2020-06-30 23:00:00 24.5 3 Sudeste 15 Sur 0 -- -- 53
2020-06-30 22:00:00 25.2 7 Sur 15 Sur 0 -- -- 52
2020-06-30 21:00:00 26.5 10 Sudoeste 31 Sudeste 0 -- -- 49
2020-06-30 20:00:00 28.7 16 Sudeste 36 Sur 0 -- -- 45
2020-06-30 19:00:00 30.1 14 Sudeste 38 Sur 0 -- -- 44
2020-06-30 18:00:00 30.8 19 Sudeste 39 Sur 0 -- -- 43
2020-06-30 17:00:00 31.1 21 Este 42 Este 0 -- -- 45
2020-06-30 16:00:00 31.7 17 Este 32 Este 0 -- -- 41
2020-06-30 15:00:00 31.8 18 Nordeste 34 Nordeste 0 -- -- 41
2020-06-30 14:00:00 29.6 13 Este 26 Nordeste 0 -- -- 46
2020-06-30 13:00:00 28.2 8 Norte 19 Nordeste 0 -- -- 49
2020-06-30 12:00:00 26.1 4 Nordeste 14 Norte 0 -- -- 55
2020-06-30 11:00:00 24.2 8 Nordeste 14 Este 0 -- -- 59
2020-06-30 10:00:00 22.5 4 Este 11 Sudeste 0 -- -- 66
2020-06-30 09:00:00 20.4 2 Sur 5 Este 0 -- -- 73
2020-06-30 08:00:00 18.6 0 Calma 3 Sudoeste 0 -- -- 77
2020-06-30 07:00:00 17.8 2 Sudoeste 4 Oeste 0 -- -- 80
2020-06-30 06:00:00 18.5 0 Calma 6 Este 0 -- -- 77
2020-06-30 05:00:00 19.3 0 Calma 4 Oeste 0 -- -- 73
2020-06-30 04:00:00 19.7 0 Calma 9 Nordeste 0 -- -- 71
2020-06-30 03:00:00 20.2 3 Norte 9 Nordeste 0 -- -- 69
2020-06-30 02:00:00 21.2 3 Oeste 9 Noroeste 0 -- -- 66
2020-06-30 01:00:00 22.2 5 Norte 13 Nordeste 0 -- -- 64
2020-06-30 00:00:00 23.1 5 Norte 23 Oeste 0 -- -- 63
2020-06-29 23:00:00 23.2 6 Este 13 Este 0 -- -- 75
2020-06-29 22:00:00 24.6 9 Este 12 Este 0 -- -- 71
2020-06-29 21:00:00 26 9 Este 17 Sudeste 0 -- -- 66
2020-06-29 20:00:00 28.1 7 Sudeste 19 Sudeste 0 -- -- 60
2020-06-29 19:00:00 29.3 7 Sudeste 24 Este 0 -- -- 56
2020-06-29 18:00:00 30.5 14 Este 28 Este 0 -- -- 44
2020-06-29 17:00:00 31.1 13 Este 30 Nordeste 0 -- -- 43
2020-06-29 16:00:00 30.9 7 Este 24 Este 0 -- -- 44
2020-06-29 15:00:00 29.7 11 Nordeste 23 Noroeste 0 -- -- 44
2020-06-29 14:00:00 28.8 6 Oeste 23 Este 0 -- -- 46
2020-06-29 13:00:00 27.5 11 Este 24 Este 0 -- -- 48
2020-06-29 12:00:00 26.1 6 Este 21 Este 0 -- -- 52
2020-06-29 11:00:00 24.5 11 Este 23 Este 0 -- -- 56
2020-06-29 10:00:00 23 9 Este 16 Nordeste 0 -- -- 64
2020-06-29 09:00:00 21.5 4 Este 10 Nordeste 0 -- -- 71
2020-06-29 08:00:00 19.7 0 Calma 3 Nordeste 0 -- -- 81
2020-06-29 07:00:00 18.7 0 Calma 6 Noroeste 0 -- -- 85
2020-06-29 06:00:00 19.4 4 Sudoeste 11 Oeste 0 -- -- 79
2020-06-29 05:00:00 20.3 5 Sudoeste 13 Oeste 0 -- -- 76
2020-06-29 04:00:00 21.1 4 Oeste 15 Noroeste 0 -- -- 73
2020-06-29 03:00:00 21.1 4 Oeste 15 Oeste 0 -- -- 77
2020-06-29 02:00:00 22.5 4 Oeste 16 Oeste 0 -- -- 69
2020-06-29 01:00:00 22.1 0 Calma 5 Sudoeste 0 -- -- 73
2020-06-29 00:00:00 22.9 3 Sudoeste 12 Sur 0 -- -- 70
2020-06-28 23:00:00 23.6 5 Sudoeste 13 Sur 0 -- -- 68
2020-06-28 22:00:00 24.7 9 Sur 14 Sur 0 -- -- 65
2020-06-28 21:00:00 25.9 7 Este 15 Sudeste 0 -- -- 62
2020-06-28 20:00:00 27.9 8 Sudeste 19 Sudeste 0 -- -- 57
2020-06-28 19:00:00 28 7 Este 19 Este 0 -- -- 56
2020-06-28 18:00:00 27.4 4 Este 44 Este 0 -- -- 56
2020-06-28 17:00:00 28.6 8 Este 30 Este 0 -- -- 48
2020-06-28 16:00:00 29.6 11 Este 23 Este 0 -- -- 44
2020-06-28 15:00:00 30.6 8 Norte 28 Este 0 -- -- 41
2020-06-28 14:00:00 29.1 9 Este 28 Sudeste 0 -- -- 45
2020-06-28 13:00:00 28.2 10 Este 26 Este 0 -- -- 45
2020-06-28 12:00:00 27.4 7 Este 24 Este 0 -- -- 47
2020-06-28 11:00:00 26.3 7 Nordeste 15 Este 0 -- -- 47
2020-06-28 10:00:00 24.3 3 Nordeste 7 Nordeste 0 -- -- 54
2020-06-28 09:00:00 22 2 Este 6 Nordeste 0 -- -- 58
2020-06-28 08:00:00 19.4 5 Nordeste 8 Este 0 -- -- 63
2020-06-28 07:00:00 18.4 5 Este 8 Este 0 -- -- 67
2020-06-28 06:00:00 19 4 Este 8 Este 0 -- -- 67
2020-06-28 05:00:00 19.6 5 Este 6 Este 0 -- -- 67
2020-06-28 04:00:00 20.1 5 Este 8 Este 0 -- -- 67
2020-06-28 03:00:00 20.6 5 Este 8 Sudeste 0 -- -- 66
2020-06-28 02:00:00 21.3 2 Sudoeste 7 Sudoeste 0 -- -- 64
2020-06-28 01:00:00 22.5 4 Sudeste 9 Sudeste 0 -- -- 59
2020-06-28 00:00:00 23 6 Sur 12 Sur 0 -- -- 58
2020-06-27 23:00:00 23.7 4 Sudeste 9 Sudeste 0 -- -- 59
2020-06-27 22:00:00 24.7 5 Este 11 Este 0 -- -- 58
2020-06-27 21:00:00 26.1 3 Este 20 Sudeste 0 -- -- 53
2020-06-27 20:00:00 28 9 Este 24 Este 0 -- -- 45
2020-06-27 19:00:00 28.5 6 Este 23 Este 0 -- -- 37
2020-06-27 18:00:00 28.5 10 Este 29 Este 0 -- -- 37
2020-06-27 17:00:00 28.9 8 Este 44 Este 0 -- -- 37
2020-06-27 16:00:00 28 19 Este 43 Este 0 -- -- 40
2020-06-27 15:00:00 28 19 Este 30 Este 0 -- -- 42
2020-06-27 14:00:00 27.5 8 Nordeste 29 Oeste 0 -- -- 38
2020-06-27 13:00:00 26.7 9 Oeste 28 Oeste 0 -- -- 38
2020-06-27 12:00:00 26.1 9 Nordeste 25 Norte 0 -- -- 41
2020-06-27 11:00:00 25.1 5 Sur 18 Oeste 0 -- -- 45
2020-06-27 10:00:00 23.4 10 Noroeste 20 Noroeste 0 -- -- 51
2020-06-27 09:00:00 20.9 3 Sudeste 9 Oeste 0 -- -- 52
2020-06-27 08:00:00 18.9 3 Este 6 Nordeste 0 -- -- 62
2020-06-27 07:00:00 17.9 4 Nordeste 9 Oeste 0 -- -- 61
2020-06-27 06:00:00 18.4 4 Oeste 8 Sudoeste 0 -- -- 61
2020-06-27 05:00:00 18.9 2 Norte 5 Este 0 -- -- 61
2020-06-27 04:00:00 18.2 3 Nordeste 10 Este 0 -- -- 65
2020-06-27 03:00:00 18.7 8 Este 9 Este 0 -- -- 65
2020-06-27 02:00:00 19.9 4 Sudeste 13 Sur 0 -- -- 56
2020-06-27 01:00:00 20.4 3 Sudoeste 12 Sudeste 0 -- -- 51
2020-06-27 00:00:00 20.3 7 Sur 17 Sudoeste 0 -- -- 54
2020-06-26 23:00:00 20.4 10 Sudoeste 17 Sudoeste 0 -- -- 57
2020-06-26 22:00:00 20.6 6 Este 13 Oeste 3.6 -- -- 66
2020-06-26 21:00:00 22.6 7 Este 33 Noroeste 0 -- -- 53
2020-06-26 20:00:00 23.9 13 Oeste 32 Oeste 0 -- -- 47
2020-06-26 19:00:00 25.6 16 Sudeste 39 Este 0 -- -- 39
2020-06-26 18:00:00 27.5 17 Sudeste 38 Sudeste 0 -- -- 37
2020-06-26 17:00:00 29.4 18 Sudeste 40 Sudeste 0 -- -- 33
2020-06-26 16:00:00 30.5 16 Sudeste 33 Sudeste 0 -- -- 30
2020-06-26 15:00:00 30.5 12 Sur 41 Sudeste 0 -- -- 29
2020-06-26 14:00:00 29.2 18 Este 37 Este 0 -- -- 32
2020-06-26 13:00:00 28.5 16 Sudeste 32 Sur 0 -- -- 31
2020-06-26 12:00:00 26.5 9 Sudeste 28 Nordeste 0 -- -- 34
2020-06-26 11:00:00 26.2 7 Sudeste 21 Este 0 -- -- 34
2020-06-26 10:00:00 23.8 6 Sur 12 Sudoeste 0 -- -- 39
2020-06-26 09:00:00 21.4 6 Sur 12 Sur 0 -- -- 43
2020-06-26 08:00:00 17.9 5 Sudoeste 8 Sudoeste 0 -- -- 58
2020-06-26 07:00:00 17 0 Calma 5 Oeste 0 -- -- 63
2020-06-26 06:00:00 17 0 Calma 5 Nordeste 0 -- -- 60
2020-06-26 05:00:00 17.4 3 Sudeste 9 Este 0 -- -- 63
2020-06-26 04:00:00 17.9 2 Oeste 5 Oeste -- -- -- 60
2020-06-26 03:00:00 18.9 0 Calma 16 Noroeste 0 -- -- 66
2020-06-26 02:00:00 19.5 7 Oeste 22 Oeste 0 -- -- 69
2020-06-26 01:00:00 20.7 5 Oeste 11 Sudeste 0 -- -- 57
2020-06-26 00:00:00 21.2 6 Este 20 Sudeste 0 -- -- 45
2020-06-25 23:00:00 21.6 12 Este 17 Este 0 -- -- 48
2020-06-25 22:00:00 22.6 7 Sur 17 Sudeste 0 -- -- 50
2020-06-25 21:00:00 24.3 9 Sudeste 39 Sur 0 -- -- 48
2020-06-25 20:00:00 26.4 13 Sudeste 35 Sur 0 -- -- 45
2020-06-25 19:00:00 26.9 14 Sudeste 31 Sudeste 0 -- -- 44
2020-06-25 18:00:00 28.6 17 Este 41 Nordeste 0 -- -- 42
2020-06-25 17:00:00 29.5 15 Sudeste 36 Sudeste 0 -- -- 43
2020-06-25 16:00:00 31 15 Sudeste 33 Sudeste 0 -- -- 39
2020-06-25 15:00:00 32.1 13 Sur 24 Sudeste 0 -- -- 33
2020-06-25 14:00:00 31 6 Nordeste -- -- -- -- -- 39
2020-06-25 13:00:00 29.9 7 Nordeste 18 Este 0 -- -- 42
2020-06-25 12:00:00 28.2 6 Norte 12 Norte 0 -- -- 46
2020-06-25 11:00:00 26 4 Este 9 Este 0 -- -- 44
2020-06-25 10:00:00 22.9 5 Este 11 Este 0 -- -- 56
2020-06-25 09:00:00 20.3 4 Nordeste 8 Este 0 -- -- 63
2020-06-25 08:00:00 17.9 6 Este 10 Este 0 -- -- 68
2020-06-25 07:00:00 16.6 8 Este 9 Este 0 -- -- 71
2020-06-25 06:00:00 16.7 4 Nordeste 11 Este 0 -- -- 71
2020-06-25 05:00:00 16.3 5 Sudeste 11 Sur 0 -- -- 75
2020-06-25 04:00:00 16.9 4 Este 8 Sur 0 -- -- 74
2020-06-25 03:00:00 17.4 4 Sudeste 10 Sur 0 -- -- 72
2020-06-25 02:00:00 18.1 4 Sudeste 9 Sudeste 0 -- -- 69
2020-06-25 01:00:00 19.4 3 Sudeste 9 Sur 0 -- -- 63
2020-06-25 00:00:00 19.9 3 Sudeste 15 Oeste 0 -- -- 62
2020-06-24 23:00:00 21.1 3 Este 30 Noroeste 0 -- -- 55
2020-06-24 22:00:00 22.9 8 Norte 33 Este 0 -- -- 51
2020-06-24 21:00:00 22.8 4 Este 22 Sudoeste 0 -- -- 47
2020-06-24 20:00:00 22.4 9 Sudoeste 49 Oeste 0 -- -- 51
2020-06-24 19:00:00 22.5 28 Oeste 60 Oeste 0.2 -- -- 48
2020-06-24 18:00:00 20 40 Oeste 82 Oeste 0.4 -- -- 66
2020-06-24 17:00:00 22.3 24 Oeste 74 Oeste 0 -- -- 53
2020-06-24 16:00:00 24.5 13 Sudoeste 25 Sudoeste 0 -- -- 45
2020-06-24 15:00:00 26.4 7 Sudeste 27 Este 0 -- -- 49
2020-06-24 14:00:00 31.1 10 Nordeste 24 Nordeste 0 -- -- 42
2020-06-24 13:00:00 30.9 8 Este 25 Este 0 -- -- 40
2020-06-24 12:00:00 29.4 9 Este 20 Sur 0 -- -- 43
2020-06-24 11:00:00 27.5 6 Este 12 Nordeste 0 -- -- 47
2020-06-24 10:00:00 25.1 3 Sudeste 11 Este 0 -- -- 53
2020-06-24 09:00:00 23.3 3 Este 8 Nordeste 0 -- -- 59
2020-06-24 08:00:00 20.4 4 Este 8 Este 0 -- -- 69
2020-06-24 07:00:00 19 3 Sudeste 13 Este 0 -- -- 73
2020-06-24 06:00:00 19.2 4 Sudeste 10 Sudeste 0 -- -- 73
2020-06-24 05:00:00 19.7 3 Sudeste 6 Este 0 -- -- 73
2020-06-24 04:00:00 20.4 3 Este 5 Este 0 -- -- 70
2020-06-24 03:00:00 20 0 Calma 6 Sur 0 -- -- 72
2020-06-24 02:00:00 20.3 4 Sur 10 Sur 0 -- -- 71
2020-06-24 01:00:00 20.7 3 Sudoeste 5 Este 0 -- -- 70
2020-06-24 00:00:00 21.3 2 Sudoeste 10 Sudeste 0 -- -- 69
2020-06-23 23:00:00 22.3 4 Sudoeste 10 Sudeste 0 -- -- 66
2020-06-23 22:00:00 23.3 4 Sur 10 Sudoeste 0 -- -- 63
2020-06-23 21:00:00 24.5 4 Sur 13 Sudoeste 0 -- -- 59
2020-06-23 20:00:00 25.6 5 Sur 19 Sudeste 0 -- -- 55
2020-06-23 19:00:00 26.4 10 Sudeste 22 Este 0 -- -- 54
2020-06-23 18:00:00 29.8 9 Sudeste 26 Sur 0 -- -- 44
2020-06-23 17:00:00 31.3 12 Sur 27 Sudeste 0 -- -- 41
2020-06-23 16:00:00 30.9 12 Sudeste 24 Este 0 -- -- 40
2020-06-23 15:00:00 30.9 6 Este 25 Sur 0 -- -- 39
2020-06-23 14:00:00 29.8 13 Este 24 Este 0 -- -- 41
2020-06-23 13:00:00 28.6 9 Este 22 Este 0 -- -- 43
2020-06-23 12:00:00 27.6 5 Este 17 Este 0 -- -- 47
2020-06-23 11:00:00 25.3 5 Nordeste 14 Este 0 -- -- 52
2020-06-23 10:00:00 23 3 Nordeste 11 Nordeste 0 -- -- 57
2020-06-23 09:00:00 20.6 5 Este 10 Este 0 -- -- 63
2020-06-23 08:00:00 18 5 Este 8 Este 0 -- -- 71
2020-06-23 07:00:00 17.2 5 Sudeste 8 Este 0 -- -- 73
2020-06-23 06:00:00 18 4 Este 8 Este 0 -- -- 66
2020-06-23 05:00:00 17.8 7 Este 9 Este 0 -- -- 69
2020-06-23 04:00:00 18.5 6 Este 10 Este 0 -- -- 68
2020-06-23 03:00:00 19.1 2 Este 8 Este 0 -- -- 65
2020-06-23 02:00:00 20.4 0 Calma 5 Sudeste 0 -- -- 58
2020-06-23 01:00:00 21.2 5 Este 7 Este 0 -- -- 64
2020-06-23 00:00:00 22.2 3 Oeste 5 Oeste 0 -- -- 63
2020-06-22 23:00:00 23.4 2 Oeste 9 Este 0 -- -- 52
2020-06-22 22:00:00 25.1 2 Norte 8 Nordeste 0 -- -- 37
2020-06-22 21:00:00 26.2 6 Nordeste 17 Este 0 -- -- 34
2020-06-22 20:00:00 27.6 11 Este 27 Este 0 -- -- 34
2020-06-22 19:00:00 28.4 14 Este 26 Este 0 -- -- 35
2020-06-22 18:00:00 28.8 11 Este 33 Este 0 -- -- 36
2020-06-22 17:00:00 28.5 19 Este 41 Este 0 -- -- 37
2020-06-22 16:00:00 28.2 15 Este 36 Este 0 -- -- 40
2020-06-22 15:00:00 27.3 15 Este 38 Este 0 -- -- 43
2020-06-22 14:00:00 26.8 19 Este 37 Este 0 -- -- 44
2020-06-22 13:00:00 26.4 9 Este 28 Este 0 -- -- 44
2020-06-22 12:00:00 25.3 6 Sudeste 23 Este 0 -- -- 45
2020-06-22 11:00:00 23.8 7 Nordeste 26 Oeste 0 -- -- 47
2020-06-22 10:00:00 22.2 9 Oeste 21 Oeste 0 -- -- 49
2020-06-22 09:00:00 21.3 3 Sur 14 Sudeste 0 -- -- 51
2020-06-22 08:00:00 19.3 5 Sudeste 14 Este 0 -- -- 55
2020-06-22 07:00:00 18.1 7 Este 12 Este 0 -- -- 56
2020-06-22 06:00:00 18.3 4 Sur 17 Este 0 -- -- 55
2020-06-22 05:00:00 18.8 8 Este 26 Oeste 0 -- -- 53
2020-06-22 04:00:00 19 9 Noroeste 40 Oeste 0 -- -- 51
2020-06-22 03:00:00 19.9 23 Oeste 39 Sudoeste 0 -- -- 48
2020-06-22 02:00:00 19.9 18 Oeste 37 Oeste 0 -- -- 49
2020-06-22 01:00:00 20.7 27 Oeste 41 Oeste 0 -- -- 48
2020-06-22 00:00:00 22.2 13 Oeste 30 Oeste 0 -- -- 44
2020-06-21 23:00:00 23.7 24 Noroeste 40 Oeste 0 -- -- 40
2020-06-21 22:00:00 24.9 19 Noroeste 37 Noroeste 0 -- -- 36
2020-06-21 21:00:00 26.7 14 Oeste 27 Oeste 0 -- -- 33
2020-06-21 20:00:00 28.9 6 Sur 36 Este 0 -- -- 31
2020-06-21 19:00:00 29.2 6 Este 32 Este 0 -- -- 32
2020-06-21 18:00:00 29.4 12 Sudeste 36 Este 0 -- -- 31
2020-06-21 17:00:00 30.2 10 Sur 33 Este 0 -- -- 32
2020-06-21 16:00:00 29.7 16 Este 36 Este 0 -- -- 34
2020-06-21 15:00:00 29 14 Este 27 Nordeste 0 -- -- 35
2020-06-21 14:00:00 28.3 9 Este 27 Este 0 -- -- 37
2020-06-21 13:00:00 27.1 9 Este 30 Este 0 -- -- 38
2020-06-21 12:00:00 25.6 13 Este 27 Nordeste 0 -- -- 45
2020-06-21 11:00:00 24.4 6 Este 16 Este 0 -- -- 54
2020-06-21 10:00:00 22.5 4 Este 9 Nordeste 0 -- -- 62
2020-06-21 09:00:00 20.3 4 Este 6 Nordeste 0 -- -- 70
2020-06-21 08:00:00 18 2 Nordeste 5 Este 0 -- -- 79
2020-06-21 07:00:00 17.1 4 Nordeste 6 Este 0 -- -- 83
2020-06-21 06:00:00 17.7 4 Este 5 Este 0 -- -- 83
2020-06-21 05:00:00 18.1 0 Calma 6 Este 0 -- -- 81
2020-06-21 04:00:00 18.5 5 Este 9 Este 0 -- -- 82
2020-06-21 03:00:00 18.7 4 Este 7 Este 0 -- -- 82
2020-06-21 02:00:00 19.8 3 Este 5 Sur 0 -- -- 79
2020-06-21 01:00:00 21.5 2 Sudeste 9 Oeste 0 -- -- 74
2020-06-21 00:00:00 22.5 4 Sudeste 8 Oeste 0 -- -- 67
2020-06-20 23:00:00 23.2 3 Este 13 Este 0 -- -- 55
2020-06-20 22:00:00 24 5 Nordeste 16 Este 0 -- -- 50
2020-06-20 21:00:00 25.7 3 Nordeste 14 Nordeste 0 -- -- 49
2020-06-20 20:00:00 26.9 5 Nordeste 16 Norte 0 -- -- 45
2020-06-20 19:00:00 27.1 7 Nordeste 31 Este 0 -- -- 44
2020-06-20 18:00:00 27.4 9 Este 31 Este 0 -- -- 44
2020-06-20 17:00:00 27.6 6 Este 33 Este 0 -- -- 46
2020-06-20 16:00:00 27 16 Este 34 Este 0 -- -- 49
2020-06-20 15:00:00 26.3 14 Este 33 Este 0 -- -- 52
2020-06-20 14:00:00 25.4 14 Este 25 Este 0 -- -- 55
2020-06-20 13:00:00 23.9 5 Nordeste 24 Nordeste 0 -- -- 61
2020-06-20 12:00:00 22.2 11 Este 24 Este 0 -- -- 68
2020-06-20 11:00:00 21.1 8 Este 17 Este 0 -- -- 71
2020-06-20 10:00:00 17.9 3 Sudoeste 6 Sudoeste 0 -- -- 85
2020-06-20 09:00:00 15.7 4 Sur 9 Sudoeste 0 -- -- 92
2020-06-20 08:00:00 14.9 2 Sur 4 Sur 0 -- -- 93
2020-06-20 07:00:00 14.9 0 Calma 8 Norte 0 -- -- 90
2020-06-20 06:00:00 15.8 2 Sudeste 16 Nordeste 0 -- -- 88
2020-06-20 05:00:00 16.4 4 Norte 11 Noroeste 0 -- -- 83
2020-06-20 04:00:00 16.5 0 Calma 6 Sudeste 0 -- -- 84
2020-06-20 03:00:00 16.4 4 Este 8 Sudeste 0 -- -- 87
2020-06-20 02:00:00 16.4 2 Sudoeste 7 Sudeste 0 -- -- 88
2020-06-20 01:00:00 17 5 Sur 10 Sudoeste 0 -- -- 86
2020-06-20 00:00:00 17.6 3 Sur 8 Sur 0 -- -- 83
2020-06-19 23:00:00 17.9 5 Sur 14 Este 0 -- -- 82
2020-06-19 22:00:00 18.6 9 Sudeste 17 Sudeste 0 -- -- 79
2020-06-19 21:00:00 20.3 6 Sur 18 Este 0 -- -- 72
2020-06-19 20:00:00 22 10 Este 22 Sudeste 0 -- -- 66
2020-06-19 19:00:00 22.9 10 Este 20 Sudeste 0 -- -- 62
2020-06-19 18:00:00 24 7 Este 17 Sudoeste 0 -- -- 57
2020-06-19 17:00:00 22 8 Sudeste 17 Sudoeste 0 -- -- 67
2020-06-19 16:00:00 21.2 9 Sur 21 Sudoeste 0.2 -- -- 71
2020-06-19 15:00:00 21.3 8 Oeste 22 Oeste 0 -- -- 65
2020-06-19 14:00:00 23 8 Nordeste 20 Este 0 -- -- 56
2020-06-19 13:00:00 22.2 12 Nordeste 27 Este 0 -- -- 59
2020-06-19 12:00:00 22 7 Este 18 Este 0 -- -- 62
2020-06-19 11:00:00 21.3 7 Este 15 Este 0 -- -- 63
2020-06-19 10:00:00 19.1 3 Sur 9 Sudeste 0 -- -- 71
2020-06-19 09:00:00 17.2 3 Sudoeste 5 Sur 0 -- -- 76
2020-06-19 08:00:00 15.4 3 Sudeste 9 Este 0 -- -- 86
2020-06-19 07:00:00 15 0 Calma 7 Sudeste 0 -- -- 86
2020-06-19 06:00:00 15.1 0 Calma 5 Oeste 0 -- -- 87
2020-06-19 05:00:00 15.1 4 Oeste 11 Oeste 0 -- -- 89
2020-06-19 04:00:00 15 6 Noroeste 11 Oeste 0 -- -- 91
2020-06-19 03:00:00 15.2 5 Este 7 Este 0 -- -- 88
2020-06-19 02:00:00 15.4 3 Sudeste 8 Sur 0 -- -- 87
2020-06-19 01:00:00 15.5 4 Sur 6 Sur 0 -- -- 87
2020-06-19 00:00:00 16.1 6 Sudeste 9 Este 0 -- -- 84
2020-06-18 23:00:00 16.5 2 Nordeste 11 Este 0 -- -- 83
2020-06-18 22:00:00 16.7 4 Este 13 Este 0 -- -- 80
2020-06-18 21:00:00 17.7 4 Este 14 Sur 0 -- -- 77
2020-06-18 20:00:00 19.6 6 Sur 16 Este 0 -- -- 70
2020-06-18 19:00:00 19 12 Este 15 Nordeste 0 -- -- 72
2020-06-18 18:00:00 19.7 9 Este 25 Este 0 -- -- 69
2020-06-18 17:00:00 20.5 10 Este 21 Este 0 -- -- 67
2020-06-18 16:00:00 21.6 8 Sudoeste 21 Nordeste 0 -- -- 61
2020-06-18 15:00:00 21.5 10 Este 26 Este 0 -- -- 61
2020-06-18 14:00:00 21.2 8 Norte 21 Este 0 -- -- 59
2020-06-18 13:00:00 20.6 7 Este 17 Nordeste 0 -- -- 61
2020-06-18 12:00:00 18.4 4 Este 15 Este 0 -- -- 67
2020-06-18 11:00:00 16.2 3 Norte 10 Este 0 -- -- 74
2020-06-18 10:00:00 13.7 2 Nordeste 12 Este 0 -- -- 78
2020-06-18 09:00:00 13 4 Este 13 Sur 0 -- -- 83
2020-06-18 08:00:00 12.2 6 Sudeste 27 Noroeste 0 -- -- 85
2020-06-18 07:00:00 12.2 10 Noroeste 33 Noroeste 0 -- -- 83
2020-06-18 06:00:00 13 0 Calma 20 Nordeste 0 -- -- 88
2020-06-18 05:00:00 13.6 6 Nordeste 17 Norte 0 -- -- 87
2020-06-18 04:00:00 14.2 4 Noroeste 9 Oeste 0.2 -- -- 85
2020-06-18 03:00:00 14 4 Sudoeste 8 Sudoeste 0.6 -- -- 85
2020-06-18 02:00:00 14.8 4 Sudoeste 9 Sudoeste 0.2 -- -- 78
2020-06-18 01:00:00 14.9 4 Este 14 Sudoeste 0 -- -- 76
2020-06-18 00:00:00 15.6 7 Sudeste 12 Sudeste 0 -- -- 71
2020-06-17 23:00:00 15.8 9 Sur 18 Sur 0 -- -- 70
2020-06-17 22:00:00 16.2 7 Sur 16 Sur 0 -- -- 69
2020-06-17 21:00:00 17.7 3 Sudeste 18 Este 0 -- -- 61
2020-06-17 20:00:00 18.5 6 Sudeste 21 Este 0 -- -- 53
2020-06-17 19:00:00 19.5 7 Este 24 Este 0 -- -- 51
2020-06-17 18:00:00 18.3 12 Este 28 Este 0 -- -- 55
2020-06-17 17:00:00 19 13 Este 28 Este 0 -- -- 54
2020-06-17 16:00:00 19.7 14 Este 31 Este 0 -- -- 53
2020-06-17 15:00:00 18.6 19 Este 30 Este 0 -- -- 55
2020-06-17 14:00:00 19.6 8 Este 30 Este 0 -- -- 53
2020-06-17 13:00:00 18.8 8 Sudeste 27 Nordeste 0 -- -- 54
2020-06-17 12:00:00 17.3 7 Sudeste 25 Oeste 0 -- -- 60
2020-06-17 11:00:00 16.9 6 Sudoeste 19 Este 0 -- -- 58
2020-06-17 10:00:00 15.7 6 Este 13 Este 0 -- -- 66
2020-06-17 09:00:00 12.7 5 Este 14 Sur 0 -- -- 80
2020-06-17 08:00:00 12.1 8 Oeste 26 Oeste 0 -- -- 79
2020-06-17 07:00:00 11.9 6 Noroeste 26 Oeste 0 -- -- 76
2020-06-17 06:00:00 11.9 8 Oeste 21 Oeste 0 -- -- 76
2020-06-17 05:00:00 12.9 10 Oeste 30 Noroeste 0 -- -- 69
2020-06-17 04:00:00 13 10 Oeste 32 Oeste 0 -- -- 73
2020-06-17 03:00:00 13.7 3 Sur 23 Oeste 0 -- -- 70
2020-06-17 02:00:00 14 3 Norte 16 Oeste 0 -- -- 72
2020-06-17 01:00:00 14.4 8 Oeste 18 Noroeste 0 -- -- 74
2020-06-17 00:00:00 14.6 5 Oeste 16 Norte 0 -- -- 71
2020-06-16 23:00:00 15.3 9 Oeste 36 Oeste 0 -- -- 68
2020-06-16 22:00:00 15.4 23 Noroeste 49 Noroeste 0.4 -- -- 78
2020-06-16 21:00:00 18.5 4 Nordeste 18 Este 0 -- -- 62
2020-06-16 20:00:00 20.8 5 Este 21 Este 0 -- -- 54
2020-06-16 19:00:00 23 4 Sudoeste 23 Sudoeste 0 -- -- 50
2020-06-16 18:00:00 22.7 9 Oeste 23 Oeste 0 -- -- 49
2020-06-16 17:00:00 21.2 10 Oeste 22 Noroeste 0 -- -- 53
2020-06-16 16:00:00 18.8 5 Norte 17 Noroeste 0 -- -- 60
2020-06-16 15:00:00 17.3 4 Oeste 24 Noroeste 0 -- -- 71
2020-06-16 14:00:00 16 4 Nordeste 13 Sur 0 -- -- 83
2020-06-16 13:00:00 14.2 3 Nordeste 37 Oeste 2 -- -- 86
2020-06-16 12:00:00 16.3 5 Este 19 Sudoeste 0 -- -- 75
2020-06-16 11:00:00 16.2 3 Noroeste 15 Nordeste 0 -- -- 77
2020-06-16 10:00:00 14.6 8 Nordeste 13 Nordeste 0 -- -- 83
2020-06-16 09:00:00 14.1 0 Calma 7 Sudoeste 0 -- -- 83
2020-06-16 08:00:00 13.6 3 Sudoeste 5 Oeste 0 -- -- 83
2020-06-16 07:00:00 13.6 4 Nordeste 19 Este 0 -- -- 81
2020-06-16 06:00:00 14.3 0 Calma 6 Noroeste 0 -- -- 76
2020-06-16 05:00:00 14.4 3 Este 5 Este 0 -- -- 76
2020-06-16 04:00:00 15.5 0 Calma 3 Este 0 -- -- 70
2020-06-16 03:00:00 15.6 0 Calma 5 Sur 0 -- -- 71
2020-06-16 02:00:00 16.6 0 Calma 5 Este 0 -- -- 65
2020-06-16 01:00:00 17.5 5 Noroeste 21 Este 0 -- -- 61
2020-06-16 00:00:00 18.8 7 Nordeste 22 Noroeste 0 -- -- 57
2020-06-15 23:00:00 19.7 17 Noroeste 25 Noroeste 0 -- -- 53
2020-06-15 22:00:00 19.7 5 Sudoeste 14 Sudeste 0 -- -- 62
2020-06-15 21:00:00 21.1 3 Este 9 Sudeste 0 -- -- 57
2020-06-15 20:00:00 21.7 4 Este 16 Este 0 -- -- 57
2020-06-15 19:00:00 22.9 11 Este 18 Este 0 -- -- 43
2020-06-15 18:00:00 23.4 9 Este 36 Este 0 -- -- 43
2020-06-15 17:00:00 24.6 6 Este 22 Este 0 -- -- 40
2020-06-15 16:00:00 24.3 9 Nordeste 30 Nordeste 0 -- -- 40
2020-06-15 15:00:00 24.4 13 Este 27 Este 0 -- -- 41
2020-06-15 14:00:00 23.5 9 Este 24 Nordeste 0 -- -- 43
2020-06-15 13:00:00 22.6 8 Este 30 Nordeste 0 -- -- 47
2020-06-15 12:00:00 21.5 8 Este 15 Este 0 -- -- 49
2020-06-15 11:00:00 19.9 2 Sudoeste 8 Sur 0 -- -- 55
2020-06-15 10:00:00 16.7 3 Este 7 Este 0 -- -- 62
2020-06-15 09:00:00 15.1 2 Nordeste 4 Nordeste 0 -- -- 70
2020-06-15 08:00:00 14 4 Este 6 Este 0 -- -- 72
2020-06-15 07:00:00 13.8 5 Este 6 Nordeste 0 -- -- 71
2020-06-15 06:00:00 14.4 2 Este 7 Oeste 0 -- -- 67
2020-06-15 05:00:00 15.1 0 Calma 5 Sudeste 0 -- -- 64
2020-06-15 04:00:00 15.5 3 Sur 8 Norte 0 -- -- 65
2020-06-15 03:00:00 16.4 5 Este 20 Oeste 0 -- -- 57
2020-06-15 02:00:00 17.2 12 Oeste 26 Oeste 0 -- -- 54
2020-06-15 01:00:00 17.9 6 Oeste 17 Oeste 0 -- -- 52
2020-06-15 00:00:00 19.2 2 Este 7 Nordeste 0 -- -- 48
2020-06-14 23:00:00 19.6 0 Calma 6 Este 0 -- -- 49
2020-06-14 22:00:00 20.4 3 Este 6 Este 0 -- -- 46
2020-06-14 21:00:00 21.2 3 Nordeste 11 Este 0 -- -- 42
2020-06-14 20:00:00 21.8 8 Este 19 Este 0 -- -- 41
2020-06-14 19:00:00 22.7 7 Este 15 Sur 0 -- -- 41
2020-06-14 18:00:00 23.2 9 Este 31 Este 0 -- -- 38
2020-06-14 17:00:00 23.9 8 Este 30 Este 0 -- -- 37
2020-06-14 16:00:00 23.2 9 Este 26 Este 0 -- -- 40
2020-06-14 15:00:00 22.5 11 Este 32 Nordeste 0 -- -- 41
2020-06-14 14:00:00 24.1 15 Sudoeste 28 Sudoeste 0 -- -- 34
2020-06-14 13:00:00 23 12 Sur 35 Oeste 0 -- -- 37
2020-06-14 12:00:00 22.9 7 Sur 19 Sur 0 -- -- 37
2020-06-14 11:00:00 20.6 4 Sur 9 Sur 0 -- -- 45
2020-06-14 10:00:00 17.3 3 Este 6 Este 0 -- -- 56
2020-06-14 09:00:00 14.6 0 Calma 9 Este 0 -- -- 60
2020-06-14 08:00:00 12.4 6 Este 9 Este 0 -- -- 66
2020-06-14 07:00:00 11.2 5 Este 8 Este 0 -- -- 68
2020-06-14 06:00:00 11.6 4 Este 8 Este 0 -- -- 66
2020-06-14 05:00:00 11.7 6 Este 9 Nordeste 0 -- -- 66
2020-06-14 04:00:00 12.7 5 Este 8 Nordeste 0 -- -- 63
2020-06-14 03:00:00 13.4 3 Sudeste 8 Nordeste 0 -- -- 60
2020-06-14 02:00:00 14.2 3 Sur 6 Sudeste 0 -- -- 57
2020-06-14 01:00:00 15.5 0 Calma 6 Sudeste 0 -- -- 51
2020-06-14 00:00:00 16.6 0 Calma 8 Sudeste 0 -- -- 46
2020-06-13 23:00:00 17.3 3 Este 13 Nordeste 0 -- -- 45
2020-06-13 22:00:00 18.3 5 Nordeste 15 Oeste 0 -- -- 41
2020-06-13 21:00:00 19.9 14 Noroeste 28 Noroeste 0 -- -- 38
2020-06-13 20:00:00 22.1 13 Sudoeste 26 Oeste 0 -- -- 35
2020-06-13 19:00:00 22.5 18 Noroeste 39 Oeste 0 -- -- 35
2020-06-13 18:00:00 22.4 11 Oeste 34 Sudoeste 0 -- -- 35
2020-06-13 17:00:00 22.4 10 Sudoeste 39 Sur 0 -- -- 33
2020-06-13 16:00:00 21.6 13 Oeste 35 Oeste 0 -- -- 38
2020-06-13 15:00:00 21.3 14 Sudoeste 32 Sudoeste 0 -- -- 37
2020-06-13 14:00:00 20.3 15 Sudoeste 39 Oeste 0 -- -- 40
2020-06-13 13:00:00 19 11 Sur 27 Oeste 0 -- -- 47
2020-06-13 12:00:00 16.3 13 Oeste 34 Oeste 0 -- -- 51
2020-06-13 11:00:00 15.8 18 Sudoeste 33 Oeste 0 -- -- 53
2020-06-13 10:00:00 15.6 13 Sudoeste 28 Sudoeste 0 -- -- 53
2020-06-13 09:00:00 15.2 6 Oeste 21 Sudoeste 0 -- -- 55
2020-06-13 08:00:00 13.2 2 Sur 10 Sur 0 -- -- 62
2020-06-13 07:00:00 12.6 12 Sudoeste 25 Sudoeste 0 -- -- 61
2020-06-13 06:00:00 11.4 2 Nordeste 5 Este 0 -- -- 73
2020-06-13 05:00:00 11.8 3 Sudoeste 6 Sudoeste 0 -- -- 71
2020-06-13 04:00:00 12.5 3 Sur 7 Noroeste 0 -- -- 67
2020-06-13 03:00:00 13.4 8 Noroeste 26 Nordeste 0 -- -- 61
2020-06-13 02:00:00 15.6 5 Nordeste 24 Oeste 0 -- -- 46
2020-06-13 01:00:00 16.6 19 Oeste 27 Sudoeste 0 -- -- 40
2020-06-13 00:00:00 17.4 6 Oeste 26 Oeste 0 -- -- 40
2020-06-12 23:00:00 17.5 13 Oeste 24 Oeste 0 -- -- 54
2020-06-12 22:00:00 17.8 3 Norte 11 Este 0 -- -- 52
2020-06-12 21:00:00 18.5 5 Este 25 Este 0 -- -- 45
2020-06-12 20:00:00 19.5 11 Este 23 Este 0 -- -- 42
2020-06-12 19:00:00 20.4 12 Este 21 Este 0 -- -- 40
2020-06-12 18:00:00 21 6 Este 20 Noroeste 0 -- -- 36
2020-06-12 17:00:00 20.8 12 Este 30 Sudoeste 0 -- -- 35
2020-06-12 16:00:00 23 10 Este 29 Noroeste 0 -- -- 35
2020-06-12 15:00:00 21.6 8 Nordeste 22 Nordeste 0 -- -- 38
2020-06-12 14:00:00 20.9 13 Este 24 Este 0 -- -- 39
2020-06-12 13:00:00 20 8 Este 23 Este 0 -- -- 42
2020-06-12 12:00:00 19.2 8 Este 23 Sur 0 -- -- 47
2020-06-12 11:00:00 17.1 7 Este 18 Oeste 0 -- -- 52
2020-06-12 10:00:00 16 4 Oeste 15 Este 0 -- -- 52
2020-06-12 09:00:00 15.1 5 Sudeste 14 Este 0 -- -- 72
2020-06-12 08:00:00 12.5 4 Sudoeste 17 Norte 0 -- -- 86
2020-06-12 07:00:00 13.4 9 Norte 19 Nordeste 0 -- -- 74
2020-06-12 06:00:00 13.6 2 Sudoeste 6 Sur 0 -- -- 74
2020-06-12 05:00:00 13.9 3 Nordeste 9 Este 0 -- -- 72
2020-06-12 04:00:00 14.5 2 Este 18 Sudoeste 0 -- -- 69
2020-06-12 03:00:00 14.9 6 Oeste 46 Oeste 0 -- -- 67
2020-06-12 02:00:00 15.5 20 Noroeste 41 Noroeste 0 -- -- 66
2020-06-12 01:00:00 17.4 4 Nordeste 20 Oeste 0 -- -- 69
2020-06-12 00:00:00 18.2 9 Sudoeste 14 Sudoeste 0 -- -- 51